sensor_id;sensor_type;location;lat;lon;timestamp;temperature;humidity
26595;DHT22;14238;49.496;8.154;2023-07-22T00:00:59;16.30;99.90
26595;DHT22;14238;49.496;8.154;2023-07-22T00:03:24;16.40;99.90
26595;DHT22;14238;49.496;8.154;2023-07-22T00:06:11;16.30;99.90
26595;DHT22;14238;49.496;8.154;2023-07-22T00:08:38;16.30;99.90
26595;DHT22;14238;49.496;8.154;2023-07-22T00:11:07;16.20;99.90
26595;DHT22;14238;49.496;8.154;2023-07-22T00:13:33;16.30;99.90
26595;DHT22;14238;49.496;8.154;2023-07-22T00:15:59;16.30;99.90
26595;DHT22;14238;49.496;8.154;2023-07-22T00:18:26;16.10;99.90
26595;DHT22;14238;49.496;8.154;2023-07-22T00:20:53;16.00;99.90
26595;DHT22;14238;49.496;8.154;2023-07-22T00:23:19;15.90;99.90
26595;DHT22;14238;49.496;8.154;2023-07-22T00:25:45;15.90;99.90
26595;DHT22;14238;49.496;8.154;2023-07-22T00:28:11;15.90;99.90
26595;DHT22;14238;49.496;8.154;2023-07-22T00:30:37;15.80;99.90
26595;DHT22;14238;49.496;8.154;2023-07-22T00:33:02;15.80;99.90
26595;DHT22;14238;49.496;8.154;2023-07-22T00:35:28;15.80;99.90
26595;DHT22;14238;49.496;8.154;2023-07-22T00:37:53;15.80;99.90
26595;DHT22;14238;49.496;8.154;2023-07-22T00:40:19;15.90;99.90
26595;DHT22;14238;49.496;8.154;2023-07-22T00:42:44;15.80;99.90
26595;DHT22;14238;49.496;8.154;2023-07-22T00:45:10;15.80;99.90
26595;DHT22;14238;49.496;8.154;2023-07-22T00:47:36;15.80;99.90
26595;DHT22;14238;49.496;8.154;2023-07-22T00:50:03;15.70;99.90
26595;DHT22;14238;49.496;8.154;2023-07-22T00:52:29;15.90;99.90
26595;DHT22;14238;49.496;8.154;2023-07-22T00:54:55;15.90;99.90
26595;DHT22;14238;49.496;8.154;2023-07-22T00:57:22;15.90;99.90
26595;DHT22;14238;49.496;8.154;2023-07-22T00:59:47;15.90;99.90
26595;DHT22;14238;49.496;8.154;2023-07-22T01:02:13;15.90;99.90
26595;DHT22;14238;49.496;8.154;2023-07-22T01:04:39;16.10;99.90
26595;DHT22;14238;49.496;8.154;2023-07-22T01:07:06;16.00;99.90
26595;DHT22;14238;49.496;8.154;2023-07-22T01:09:40;16.00;99.90
26595;DHT22;14238;49.496;8.154;2023-07-22T01:12:06;16.10;99.90
26595;DHT22;14238;49.496;8.154;2023-07-22T01:14:33;16.00;99.90
26595;DHT22;14238;49.496;8.154;2023-07-22T01:17:01;16.00;99.90
26595;DHT22;14238;49.496;8.154;2023-07-22T01:19:28;16.00;99.90
26595;DHT22;14238;49.496;8.154;2023-07-22T01:21:55;16.10;99.90
26595;DHT22;14238;49.496;8.154;2023-07-22T01:24:21;16.10;99.90
26595;DHT22;14238;49.496;8.154;2023-07-22T01:26:47;16.10;99.90
26595;DHT22;14238;49.496;8.154;2023-07-22T01:29:13;16.10;99.90
26595;DHT22;14238;49.496;8.154;2023-07-22T01:31:38;16.10;99.90
26595;DHT22;14238;49.496;8.154;2023-07-22T01:34:04;16.00;99.90
26595;DHT22;14238;49.496;8.154;2023-07-22T01:36:31;16.00;99.90
26595;DHT22;14238;49.496;8.154;2023-07-22T01:38:56;16.10;99.90
26595;DHT22;14238;49.496;8.154;2023-07-22T01:41:22;16.10;99.90
26595;DHT22;14238;49.496;8.154;2023-07-22T01:43:47;16.10;99.90
26595;DHT22;14238;49.496;8.154;2023-07-22T01:46:14;16.10;99.90
26595;DHT22;14238;49.496;8.154;2023-07-22T01:48:39;16.10;99.90
26595;DHT22;14238;49.496;8.154;2023-07-22T01:51:05;16.10;99.90
26595;DHT22;14238;49.496;8.154;2023-07-22T01:53:30;16.20;99.90
26595;DHT22;14238;49.496;8.154;2023-07-22T01:55:57;16.10;99.90
26595;DHT22;14238;49.496;8.154;2023-07-22T01:58:22;16.20;99.90
26595;DHT22;14238;49.496;8.154;2023-07-22T02:00:51;16.10;99.90
26595;DHT22;14238;49.496;8.154;2023-07-22T02:03:17;16.00;99.90
26595;DHT22;14238;49.496;8.154;2023-07-22T02:05:42;16.10;99.90
26595;DHT22;14238;49.496;8.154;2023-07-22T02:08:08;15.90;99.90
26595;DHT22;14238;49.496;8.154;2023-07-22T02:10:34;16.00;99.90
26595;DHT22;14238;49.496;8.154;2023-07-22T02:13:00;16.00;99.90
26595;DHT22;14238;49.496;8.154;2023-07-22T02:15:26;15.90;99.90
26595;DHT22;14238;49.496;8.154;2023-07-22T02:17:51;15.80;99.90
26595;DHT22;14238;49.496;8.154;2023-07-22T02:20:17;15.70;99.90
26595;DHT22;14238;49.496;8.154;2023-07-22T02:22:42;15.60;99.90
26595;DHT22;14238;49.496;8.154;2023-07-22T02:25:08;15.50;99.90
26595;DHT22;14238;49.496;8.154;2023-07-22T02:27:35;15.60;99.90
26595;DHT22;14238;49.496;8.154;2023-07-22T02:30:01;15.50;99.90
26595;DHT22;14238;49.496;8.154;2023-07-22T02:32:29;15.50;99.90
26595;DHT22;14238;49.496;8.154;2023-07-22T02:34:54;15.50;99.90
26595;DHT22;14238;49.496;8.154;2023-07-22T02:37:20;15.50;99.90
26595;DHT22;14238;49.496;8.154;2023-07-22T02:39:46;15.50;99.90
26595;DHT22;14238;49.496;8.154;2023-07-22T02:42:11;15.50;99.90
26595;DHT22;14238;49.496;8.154;2023-07-22T02:44:37;15.50;99.90
26595;DHT22;14238;49.496;8.154;2023-07-22T02:47:03;15.50;99.90
26595;DHT22;14238;49.496;8.154;2023-07-22T02:49:28;15.60;99.90
26595;DHT22;14238;49.496;8.154;2023-07-22T02:51:54;15.70;99.90
26595;DHT22;14238;49.496;8.154;2023-07-22T02:54:19;15.70;99.90
26595;DHT22;14238;49.496;8.154;2023-07-22T02:56:45;15.70;99.90
26595;DHT22;14238;49.496;8.154;2023-07-22T02:59:10;15.70;99.90
26595;DHT22;14238;49.496;8.154;2023-07-22T03:01:36;15.60;99.90
26595;DHT22;14238;49.496;8.154;2023-07-22T03:04:02;15.50;99.90
26595;DHT22;14238;49.496;8.154;2023-07-22T03:06:29;15.60;99.90
26595;DHT22;14238;49.496;8.154;2023-07-22T03:08:56;15.60;99.90
26595;DHT22;14238;49.496;8.154;2023-07-22T03:11:23;15.50;99.90
26595;DHT22;14238;49.496;8.154;2023-07-22T03:13:50;15.60;99.90
26595;DHT22;14238;49.496;8.154;2023-07-22T03:16:16;15.60;99.90
26595;DHT22;14238;49.496;8.154;2023-07-22T03:18:42;15.50;99.90
26595;DHT22;14238;49.496;8.154;2023-07-22T03:21:08;15.50;99.90
26595;DHT22;14238;49.496;8.154;2023-07-22T03:23:34;15.50;99.90
26595;DHT22;14238;49.496;8.154;2023-07-22T03:26:00;15.50;99.90
26595;DHT22;14238;49.496;8.154;2023-07-22T03:28:26;15.40;99.90
26595;DHT22;14238;49.496;8.154;2023-07-22T03:30:52;15.40;99.90
26595;DHT22;14238;49.496;8.154;2023-07-22T03:33:18;15.50;99.90
26595;DHT22;14238;49.496;8.154;2023-07-22T03:35:43;15.50;99.90
26595;DHT22;14238;49.496;8.154;2023-07-22T03:38:09;15.50;99.90
26595;DHT22;14238;49.496;8.154;2023-07-22T03:40:35;15.50;99.90
26595;DHT22;14238;49.496;8.154;2023-07-22T03:43:01;15.40;99.90
26595;DHT22;14238;49.496;8.154;2023-07-22T03:45:27;15.40;99.90
26595;DHT22;14238;49.496;8.154;2023-07-22T03:47:57;15.40;99.90
26595;DHT22;14238;49.496;8.154;2023-07-22T03:50:24;15.50;99.90
26595;DHT22;14238;49.496;8.154;2023-07-22T03:52:49;15.50;99.90
26595;DHT22;14238;49.496;8.154;2023-07-22T03:55:15;15.40;99.90
26595;DHT22;14238;49.496;8.154;2023-07-22T03:57:41;15.40;99.90
26595;DHT22;14238;49.496;8.154;2023-07-22T04:00:06;15.40;99.90
26595;DHT22;14238;49.496;8.154;2023-07-22T04:02:35;15.50;99.90
26595;DHT22;14238;49.496;8.154;2023-07-22T04:05:00;15.50;99.90
26595;DHT22;14238;49.496;8.154;2023-07-22T04:07:26;15.50;99.90
26595;DHT22;14238;49.496;8.154;2023-07-22T04:09:51;15.50;99.90
26595;DHT22;14238;49.496;8.154;2023-07-22T04:12:17;15.50;99.90
26595;DHT22;14238;49.496;8.154;2023-07-22T04:14:42;15.50;99.90
26595;DHT22;14238;49.496;8.154;2023-07-22T04:17:08;15.50;99.90
26595;DHT22;14238;49.496;8.154;2023-07-22T04:19:34;15.40;99.90
26595;DHT22;14238;49.496;8.154;2023-07-22T04:21:59;15.40;99.90
26595;DHT22;14238;49.496;8.154;2023-07-22T04:24:30;15.40;99.90
26595;DHT22;14238;49.496;8.154;2023-07-22T04:26:56;15.40;99.90
26595;DHT22;14238;49.496;8.154;2023-07-22T04:29:22;15.30;99.90
26595;DHT22;14238;49.496;8.154;2023-07-22T04:31:47;15.40;99.90
26595;DHT22;14238;49.496;8.154;2023-07-22T04:34:13;15.40;99.90
26595;DHT22;14238;49.496;8.154;2023-07-22T04:36:39;15.30;99.90
26595;DHT22;14238;49.496;8.154;2023-07-22T04:39:04;15.40;99.90
26595;DHT22;14238;49.496;8.154;2023-07-22T04:41:35;15.40;99.90
26595;DHT22;14238;49.496;8.154;2023-07-22T04:44:01;15.40;99.90
26595;DHT22;14238;49.496;8.154;2023-07-22T04:46:26;15.40;99.90
26595;DHT22;14238;49.496;8.154;2023-07-22T04:48:56;15.40;99.90
26595;DHT22;14238;49.496;8.154;2023-07-22T04:51:22;15.40;99.90
26595;DHT22;14238;49.496;8.154;2023-07-22T04:53:47;15.50;99.90
26595;DHT22;14238;49.496;8.154;2023-07-22T04:56:13;15.40;99.90
26595;DHT22;14238;49.496;8.154;2023-07-22T04:58:38;15.50;99.90
26595;DHT22;14238;49.496;8.154;2023-07-22T05:01:04;15.60;99.90
26595;DHT22;14238;49.496;8.154;2023-07-22T05:03:30;15.70;99.90
26595;DHT22;14238;49.496;8.154;2023-07-22T05:05:55;15.70;99.90
26595;DHT22;14238;49.496;8.154;2023-07-22T05:08:23;15.80;99.90
26595;DHT22;14238;49.496;8.154;2023-07-22T05:10:48;15.70;99.90
26595;DHT22;14238;49.496;8.154;2023-07-22T05:13:14;15.70;99.90
26595;DHT22;14238;49.496;8.154;2023-07-22T05:15:39;15.70;99.90
26595;DHT22;14238;49.496;8.154;2023-07-22T05:18:05;15.70;99.90
26595;DHT22;14238;49.496;8.154;2023-07-22T05:20:30;15.70;99.90
26595;DHT22;14238;49.496;8.154;2023-07-22T05:22:56;15.70;99.90
26595;DHT22;14238;49.496;8.154;2023-07-22T05:25:22;15.70;99.90
26595;DHT22;14238;49.496;8.154;2023-07-22T05:27:47;15.80;99.90
26595;DHT22;14238;49.496;8.154;2023-07-22T05:30:13;15.90;99.90
26595;DHT22;14238;49.496;8.154;2023-07-22T05:32:38;16.00;99.90
26595;DHT22;14238;49.496;8.154;2023-07-22T05:35:04;16.00;99.90
26595;DHT22;14238;49.496;8.154;2023-07-22T05:37:31;16.10;99.90
26595;DHT22;14238;49.496;8.154;2023-07-22T05:39:56;16.10;99.90
26595;DHT22;14238;49.496;8.154;2023-07-22T05:42:22;16.20;99.90
26595;DHT22;14238;49.496;8.154;2023-07-22T05:44:48;16.20;99.90
26595;DHT22;14238;49.496;8.154;2023-07-22T05:47:14;16.20;99.90
26595;DHT22;14238;49.496;8.154;2023-07-22T05:49:39;16.30;99.90
26595;DHT22;14238;49.496;8.154;2023-07-22T05:52:05;16.20;99.90
26595;DHT22;14238;49.496;8.154;2023-07-22T05:54:31;16.30;99.90
26595;DHT22;14238;49.496;8.154;2023-07-22T05:56:57;16.30;99.90
26595;DHT22;14238;49.496;8.154;2023-07-22T05:59:22;16.50;99.90
26595;DHT22;14238;49.496;8.154;2023-07-22T06:01:48;16.50;99.90
26595;DHT22;14238;49.496;8.154;2023-07-22T06:04:14;16.60;99.90
26595;DHT22;14238;49.496;8.154;2023-07-22T06:06:40;16.70;99.90
26595;DHT22;14238;49.496;8.154;2023-07-22T06:09:05;16.90;99.90
26595;DHT22;14238;49.496;8.154;2023-07-22T06:11:31;17.00;99.90
26595;DHT22;14238;49.496;8.154;2023-07-22T06:13:56;17.00;99.90
26595;DHT22;14238;49.496;8.154;2023-07-22T06:16:22;17.00;99.90
26595;DHT22;14238;49.496;8.154;2023-07-22T06:18:48;17.10;99.90
26595;DHT22;14238;49.496;8.154;2023-07-22T06:21:13;17.10;99.90
26595;DHT22;14238;49.496;8.154;2023-07-22T06:23:39;17.20;99.90
26595;DHT22;14238;49.496;8.154;2023-07-22T06:26:04;17.30;99.90
26595;DHT22;14238;49.496;8.154;2023-07-22T06:28:30;17.40;99.90
26595;DHT22;14238;49.496;8.154;2023-07-22T06:30:56;17.40;99.90
26595;DHT22;14238;49.496;8.154;2023-07-22T06:33:22;17.30;99.90
26595;DHT22;14238;49.496;8.154;2023-07-22T06:35:48;17.40;99.90
26595;DHT22;14238;49.496;8.154;2023-07-22T06:38:13;17.50;99.90
26595;DHT22;14238;49.496;8.154;2023-07-22T06:40:39;17.60;99.90
26595;DHT22;14238;49.496;8.154;2023-07-22T06:43:04;17.60;99.90
26595;DHT22;14238;49.496;8.154;2023-07-22T06:45:31;17.60;99.90
26595;DHT22;14238;49.496;8.154;2023-07-22T06:47:57;17.60;99.90
26595;DHT22;14238;49.496;8.154;2023-07-22T06:50:22;17.70;99.90
26595;DHT22;14238;49.496;8.154;2023-07-22T06:52:49;17.80;99.90
26595;DHT22;14238;49.496;8.154;2023-07-22T06:55:14;17.90;99.90
26595;DHT22;14238;49.496;8.154;2023-07-22T06:57:40;17.50;99.90
26595;DHT22;14238;49.496;8.154;2023-07-22T07:00:06;17.70;99.90
26595;DHT22;14238;49.496;8.154;2023-07-22T07:02:32;17.90;99.90
26595;DHT22;14238;49.496;8.154;2023-07-22T07:04:57;17.90;99.90
26595;DHT22;14238;49.496;8.154;2023-07-22T07:07:23;17.70;99.90
26595;DHT22;14238;49.496;8.154;2023-07-22T07:09:48;17.70;99.90
26595;DHT22;14238;49.496;8.154;2023-07-22T07:12:14;17.80;99.90
26595;DHT22;14238;49.496;8.154;2023-07-22T07:14:40;18.00;99.90
26595;DHT22;14238;49.496;8.154;2023-07-22T07:17:05;18.10;99.90
26595;DHT22;14238;49.496;8.154;2023-07-22T07:19:31;18.20;99.90
26595;DHT22;14238;49.496;8.154;2023-07-22T07:21:57;18.30;99.90
26595;DHT22;14238;49.496;8.154;2023-07-22T07:24:22;18.30;99.90
26595;DHT22;14238;49.496;8.154;2023-07-22T07:26:48;18.50;99.90
26595;DHT22;14238;49.496;8.154;2023-07-22T07:29:13;18.60;99.90
26595;DHT22;14238;49.496;8.154;2023-07-22T07:31:39;18.60;99.90
26595;DHT22;14238;49.496;8.154;2023-07-22T07:34:04;18.70;99.90
26595;DHT22;14238;49.496;8.154;2023-07-22T07:36:34;18.80;99.90
26595;DHT22;14238;49.496;8.154;2023-07-22T07:38:59;19.00;99.90
26595;DHT22;14238;49.496;8.154;2023-07-22T07:41:25;19.00;99.90
26595;DHT22;14238;49.496;8.154;2023-07-22T07:43:50;19.10;99.90
26595;DHT22;14238;49.496;8.154;2023-07-22T07:46:18;19.30;99.90
26595;DHT22;14238;49.496;8.154;2023-07-22T07:48:45;19.40;99.90
26595;DHT22;14238;49.496;8.154;2023-07-22T07:51:12;19.40;99.90
26595;DHT22;14238;49.496;8.154;2023-07-22T07:53:38;19.60;99.90
26595;DHT22;14238;49.496;8.154;2023-07-22T07:56:04;19.70;99.90
26595;DHT22;14238;49.496;8.154;2023-07-22T07:58:29;19.80;99.90
26595;DHT22;14238;49.496;8.154;2023-07-22T08:00:55;20.00;99.90
26595;DHT22;14238;49.496;8.154;2023-07-22T08:03:20;20.20;99.90
26595;DHT22;14238;49.496;8.154;2023-07-22T08:05:46;20.20;99.90
26595;DHT22;14238;49.496;8.154;2023-07-22T08:08:11;20.50;99.90
26595;DHT22;14238;49.496;8.154;2023-07-22T08:10:37;20.50;99.90
26595;DHT22;14238;49.496;8.154;2023-07-22T08:13:04;20.70;99.90
26595;DHT22;14238;49.496;8.154;2023-07-22T08:15:29;20.70;99.90
26595;DHT22;14238;49.496;8.154;2023-07-22T08:17:55;20.50;99.90
26595;DHT22;14238;49.496;8.154;2023-07-22T08:20:20;20.50;99.90
26595;DHT22;14238;49.496;8.154;2023-07-22T08:22:46;20.70;99.90
26595;DHT22;14238;49.496;8.154;2023-07-22T08:25:12;20.70;99.90
26595;DHT22;14238;49.496;8.154;2023-07-22T08:27:37;20.80;99.90
26595;DHT22;14238;49.496;8.154;2023-07-22T08:30:03;20.80;99.90
26595;DHT22;14238;49.496;8.154;2023-07-22T08:32:29;20.70;99.90
26595;DHT22;14238;49.496;8.154;2023-07-22T08:34:54;20.70;99.90
26595;DHT22;14238;49.496;8.154;2023-07-22T08:37:20;21.10;99.90
26595;DHT22;14238;49.496;8.154;2023-07-22T08:39:45;21.40;99.90
26595;DHT22;14238;49.496;8.154;2023-07-22T08:42:11;21.60;99.90
26595;DHT22;14238;49.496;8.154;2023-07-22T08:44:43;21.90;99.90
26595;DHT22;14238;49.496;8.154;2023-07-22T08:47:10;21.80;99.90
26595;DHT22;14238;49.496;8.154;2023-07-22T08:49:39;22.00;99.90
26595;DHT22;14238;49.496;8.154;2023-07-22T08:52:06;22.30;99.90
26595;DHT22;14238;49.496;8.154;2023-07-22T08:54:32;22.40;99.90
26595;DHT22;14238;49.496;8.154;2023-07-22T08:56:58;22.50;99.90
26595;DHT22;14238;49.496;8.154;2023-07-22T08:59:24;22.50;99.90
26595;DHT22;14238;49.496;8.154;2023-07-22T09:01:50;22.60;99.90
26595;DHT22;14238;49.496;8.154;2023-07-22T09:04:17;22.80;99.90
26595;DHT22;14238;49.496;8.154;2023-07-22T09:06:45;23.30;99.90
26595;DHT22;14238;49.496;8.154;2023-07-22T09:09:12;23.40;99.90
26595;DHT22;14238;49.496;8.154;2023-07-22T09:11:38;23.70;99.90
26595;DHT22;14238;49.496;8.154;2023-07-22T09:14:03;23.90;99.90
26595;DHT22;14238;49.496;8.154;2023-07-22T09:16:32;23.70;99.90
26595;DHT22;14238;49.496;8.154;2023-07-22T09:18:58;23.40;99.90
26595;DHT22;14238;49.496;8.154;2023-07-22T09:21:24;23.10;99.90
26595;DHT22;14238;49.496;8.154;2023-07-22T09:23:49;23.10;99.90
26595;DHT22;14238;49.496;8.154;2023-07-22T09:26:16;23.10;99.90
26595;DHT22;14238;49.496;8.154;2023-07-22T09:31:14;23.10;99.90
26595;DHT22;14238;49.496;8.154;2023-07-22T09:33:40;22.70;99.90
26595;DHT22;14238;49.496;8.154;2023-07-22T09:36:05;22.60;99.90
26595;DHT22;14238;49.496;8.154;2023-07-22T09:38:31;23.50;99.90
26595;DHT22;14238;49.496;8.154;2023-07-22T09:40:57;23.80;99.90
26595;DHT22;14238;49.496;8.154;2023-07-22T09:43:23;24.30;99.90
26595;DHT22;14238;49.496;8.154;2023-07-22T09:45:49;24.40;99.70
26595;DHT22;14238;49.496;8.154;2023-07-22T09:48:15;23.50;99.90
26595;DHT22;14238;49.496;8.154;2023-07-22T09:50:40;22.90;99.90
26595;DHT22;14238;49.496;8.154;2023-07-22T09:53:06;22.40;99.90
26595;DHT22;14238;49.496;8.154;2023-07-22T09:55:33;22.30;99.90
26595;DHT22;14238;49.496;8.154;2023-07-22T09:58:03;22.70;99.90
26595;DHT22;14238;49.496;8.154;2023-07-22T10:00:34;23.40;99.90
26595;DHT22;14238;49.496;8.154;2023-07-22T10:03:01;24.30;98.50
26595;DHT22;14238;49.496;8.154;2023-07-22T10:05:28;24.30;98.20
26595;DHT22;14238;49.496;8.154;2023-07-22T10:07:58;24.50;97.90
26595;DHT22;14238;49.496;8.154;2023-07-22T10:10:26;25.00;98.00
26595;DHT22;14238;49.496;8.154;2023-07-22T10:12:53;25.60;96.90
26595;DHT22;14238;49.496;8.154;2023-07-22T10:15:19;25.60;94.40
26595;DHT22;14238;49.496;8.154;2023-07-22T10:17:45;25.00;94.60
26595;DHT22;14238;49.496;8.154;2023-07-22T10:20:13;25.30;94.90
26595;DHT22;14238;49.496;8.154;2023-07-22T10:22:43;25.80;94.20
26595;DHT22;14238;49.496;8.154;2023-07-22T10:25:11;25.30;94.50
26595;DHT22;14238;49.496;8.154;2023-07-22T10:27:37;25.50;94.80
26595;DHT22;14238;49.496;8.154;2023-07-22T10:30:06;25.70;94.50
26595;DHT22;14238;49.496;8.154;2023-07-22T10:32:39;25.20;92.60
26595;DHT22;14238;49.496;8.154;2023-07-22T10:37:54;25.60;92.60
26595;DHT22;14238;49.496;8.154;2023-07-22T10:40:29;25.50;92.90
26595;DHT22;14238;49.496;8.154;2023-07-22T10:43:00;25.70;92.40
26595;DHT22;14238;49.496;8.154;2023-07-22T10:45:30;24.90;92.00
26595;DHT22;14238;49.496;8.154;2023-07-22T10:48:12;24.70;91.70
26595;DHT22;14238;49.496;8.154;2023-07-22T10:50:47;24.10;93.00
26595;DHT22;14238;49.496;8.154;2023-07-22T11:04:25;24.30;92.50
26595;DHT22;14238;49.496;8.154;2023-07-22T11:07:04;24.00;92.30
26595;DHT22;14238;49.496;8.154;2023-07-22T11:12:16;25.10;92.10
26595;DHT22;14238;49.496;8.154;2023-07-22T11:14:47;25.90;90.90
26595;DHT22;14238;49.496;8.154;2023-07-22T11:17:13;25.20;91.30
26595;DHT22;14238;49.496;8.154;2023-07-22T11:19:39;24.60;91.70
26595;DHT22;14238;49.496;8.154;2023-07-22T11:22:05;24.30;93.50
26595;DHT22;14238;49.496;8.154;2023-07-22T11:24:33;24.20;92.80
26595;DHT22;14238;49.496;8.154;2023-07-22T11:27:06;24.10;93.60
26595;DHT22;14238;49.496;8.154;2023-07-22T11:29:32;24.00;93.20
26595;DHT22;14238;49.496;8.154;2023-07-22T11:31:58;25.10;93.60
26595;DHT22;14238;49.496;8.154;2023-07-22T11:34:24;25.50;91.40
26595;DHT22;14238;49.496;8.154;2023-07-22T11:36:51;26.00;90.90
26595;DHT22;14238;49.496;8.154;2023-07-22T11:39:19;26.20;90.80
26595;DHT22;14238;49.496;8.154;2023-07-22T11:41:46;25.60;90.10
26595;DHT22;14238;49.496;8.154;2023-07-22T11:44:14;25.40;91.30
26595;DHT22;14238;49.496;8.154;2023-07-22T11:46:56;26.10;89.10
26595;DHT22;14238;49.496;8.154;2023-07-22T11:49:27;25.40;87.10
26595;DHT22;14238;49.496;8.154;2023-07-22T11:51:57;24.90;88.80
26595;DHT22;14238;49.496;8.154;2023-07-22T11:54:24;25.50;87.80
26595;DHT22;14238;49.496;8.154;2023-07-22T11:56:50;25.60;89.10
26595;DHT22;14238;49.496;8.154;2023-07-22T11:59:15;24.90;87.90
26595;DHT22;14238;49.496;8.154;2023-07-22T12:01:44;25.30;89.80
26595;DHT22;14238;49.496;8.154;2023-07-22T12:04:13;25.80;90.10
26595;DHT22;14238;49.496;8.154;2023-07-22T12:06:40;26.20;87.30
26595;DHT22;14238;49.496;8.154;2023-07-22T12:09:07;26.00;86.10
26595;DHT22;14238;49.496;8.154;2023-07-22T12:11:34;26.50;88.40
26595;DHT22;14238;49.496;8.154;2023-07-22T12:14:11;26.10;86.40
26595;DHT22;14238;49.496;8.154;2023-07-22T12:16:38;25.80;88.10
26595;DHT22;14238;49.496;8.154;2023-07-22T12:19:04;26.00;86.80
26595;DHT22;14238;49.496;8.154;2023-07-22T12:21:30;26.60;88.20
26595;DHT22;14238;49.496;8.154;2023-07-22T12:23:56;26.60;85.00
26595;DHT22;14238;49.496;8.154;2023-07-22T12:26:22;27.30;86.50
26595;DHT22;14238;49.496;8.154;2023-07-22T12:28:48;27.00;84.60
26595;DHT22;14238;49.496;8.154;2023-07-22T12:31:13;27.10;82.50
26595;DHT22;14238;49.496;8.154;2023-07-22T12:33:39;27.40;83.10
26595;DHT22;14238;49.496;8.154;2023-07-22T12:36:04;27.50;85.10
26595;DHT22;14238;49.496;8.154;2023-07-22T12:38:31;28.10;83.70
26595;DHT22;14238;49.496;8.154;2023-07-22T12:40:56;26.80;81.80
26595;DHT22;14238;49.496;8.154;2023-07-22T12:43:22;26.40;82.20
26595;DHT22;14238;49.496;8.154;2023-07-22T12:45:48;26.30;84.30
26595;DHT22;14238;49.496;8.154;2023-07-22T12:48:13;25.80;84.20
26595;DHT22;14238;49.496;8.154;2023-07-22T12:50:39;26.10;85.60
26595;DHT22;14238;49.496;8.154;2023-07-22T12:53:05;26.40;85.90
26595;DHT22;14238;49.496;8.154;2023-07-22T12:55:30;26.00;85.00
26595;DHT22;14238;49.496;8.154;2023-07-22T12:57:56;26.10;88.00
26595;DHT22;14238;49.496;8.154;2023-07-22T13:00:21;26.00;84.50
26595;DHT22;14238;49.496;8.154;2023-07-22T13:02:47;25.50;88.40
26595;DHT22;14238;49.496;8.154;2023-07-22T13:05:13;25.60;87.80
26595;DHT22;14238;49.496;8.154;2023-07-22T13:07:39;26.00;88.40
26595;DHT22;14238;49.496;8.154;2023-07-22T13:10:05;26.60;86.50
26595;DHT22;14238;49.496;8.154;2023-07-22T13:12:32;26.70;85.30
26595;DHT22;14238;49.496;8.154;2023-07-22T13:14:57;26.00;84.70
26595;DHT22;14238;49.496;8.154;2023-07-22T13:17:23;25.90;86.80
26595;DHT22;14238;49.496;8.154;2023-07-22T13:19:48;26.50;86.40
26595;DHT22;14238;49.496;8.154;2023-07-22T13:22:14;26.40;83.20
26595;DHT22;14238;49.496;8.154;2023-07-22T13:24:39;26.40;84.00
26595;DHT22;14238;49.496;8.154;2023-07-22T13:27:06;26.80;82.40
26595;DHT22;14238;49.496;8.154;2023-07-22T13:29:31;26.90;83.80
26595;DHT22;14238;49.496;8.154;2023-07-22T13:31:57;26.90;83.40
26595;DHT22;14238;49.496;8.154;2023-07-22T13:34:23;26.90;85.30
26595;DHT22;14238;49.496;8.154;2023-07-22T13:36:48;26.70;82.10
26595;DHT22;14238;49.496;8.154;2023-07-22T13:39:14;26.90;83.30
26595;DHT22;14238;49.496;8.154;2023-07-22T13:41:39;27.00;81.80
26595;DHT22;14238;49.496;8.154;2023-07-22T13:44:05;27.10;85.10
26595;DHT22;14238;49.496;8.154;2023-07-22T13:46:31;27.30;81.90
26595;DHT22;14238;49.496;8.154;2023-07-22T13:48:56;27.10;82.70
26595;DHT22;14238;49.496;8.154;2023-07-22T13:51:22;27.20;82.30
26595;DHT22;14238;49.496;8.154;2023-07-22T13:53:47;27.20;81.10
26595;DHT22;14238;49.496;8.154;2023-07-22T13:56:13;26.90;82.50
26595;DHT22;14238;49.496;8.154;2023-07-22T13:58:39;27.20;80.10
26595;DHT22;14238;49.496;8.154;2023-07-22T14:01:04;26.80;79.00
26595;DHT22;14238;49.496;8.154;2023-07-22T14:03:30;26.70;80.90
26595;DHT22;14238;49.496;8.154;2023-07-22T14:05:55;26.40;79.40
26595;DHT22;14238;49.496;8.154;2023-07-22T14:08:21;26.30;81.40
26595;DHT22;14238;49.496;8.154;2023-07-22T14:10:47;26.50;80.40
26595;DHT22;14238;49.496;8.154;2023-07-22T14:13:12;26.70;80.70
26595;DHT22;14238;49.496;8.154;2023-07-22T14:15:38;26.40;79.70
26595;DHT22;14238;49.496;8.154;2023-07-22T14:18:04;25.90;80.50
26595;DHT22;14238;49.496;8.154;2023-07-22T14:20:29;25.90;80.50
26595;DHT22;14238;49.496;8.154;2023-07-22T14:22:56;26.40;82.50
26595;DHT22;14238;49.496;8.154;2023-07-22T14:25:22;26.90;81.70
26595;DHT22;14238;49.496;8.154;2023-07-22T14:27:48;27.00;80.70
26595;DHT22;14238;49.496;8.154;2023-07-22T14:30:13;26.70;83.40
26595;DHT22;14238;49.496;8.154;2023-07-22T14:32:39;26.90;80.10
26595;DHT22;14238;49.496;8.154;2023-07-22T14:35:05;27.10;81.30
26595;DHT22;14238;49.496;8.154;2023-07-22T14:37:30;26.70;79.10
26595;DHT22;14238;49.496;8.154;2023-07-22T14:39:56;27.10;80.00
26595;DHT22;14238;49.496;8.154;2023-07-22T14:42:21;27.40;78.70
26595;DHT22;14238;49.496;8.154;2023-07-22T14:44:47;27.30;78.50
26595;DHT22;14238;49.496;8.154;2023-07-22T14:47:12;27.10;79.40
26595;DHT22;14238;49.496;8.154;2023-07-22T14:49:38;27.00;79.40
26595;DHT22;14238;49.496;8.154;2023-07-22T14:52:04;27.10;78.90
26595;DHT22;14238;49.496;8.154;2023-07-22T14:54:29;26.90;77.00
26595;DHT22;14238;49.496;8.154;2023-07-22T14:56:55;26.40;80.40
26595;DHT22;14238;49.496;8.154;2023-07-22T14:59:20;26.20;79.80
26595;DHT22;14238;49.496;8.154;2023-07-22T15:01:46;26.20;80.00
26595;DHT22;14238;49.496;8.154;2023-07-22T15:04:11;26.90;80.90
26595;DHT22;14238;49.496;8.154;2023-07-22T15:06:37;27.70;79.50
26595;DHT22;14238;49.496;8.154;2023-07-22T15:09:03;28.10;79.20
26595;DHT22;14238;49.496;8.154;2023-07-22T15:11:36;28.10;76.80
26595;DHT22;14238;49.496;8.154;2023-07-22T15:14:05;27.90;77.40
26595;DHT22;14238;49.496;8.154;2023-07-22T15:16:31;27.60;77.80
26595;DHT22;14238;49.496;8.154;2023-07-22T15:18:57;27.90;76.40
26595;DHT22;14238;49.496;8.154;2023-07-22T15:21:22;27.90;75.40
26595;DHT22;14238;49.496;8.154;2023-07-22T15:23:48;27.90;77.30
26595;DHT22;14238;49.496;8.154;2023-07-22T15:26:14;27.20;75.10
26595;DHT22;14238;49.496;8.154;2023-07-22T15:28:39;27.30;77.30
26595;DHT22;14238;49.496;8.154;2023-07-22T15:31:08;27.70;79.10
26595;DHT22;14238;49.496;8.154;2023-07-22T15:33:36;27.60;76.80
26595;DHT22;14238;49.496;8.154;2023-07-22T15:36:02;27.80;78.70
26595;DHT22;14238;49.496;8.154;2023-07-22T15:38:28;27.70;77.80
26595;DHT22;14238;49.496;8.154;2023-07-22T15:40:53;27.70;77.90
26595;DHT22;14238;49.496;8.154;2023-07-22T15:43:19;27.60;76.90